Time;durP1;ratioP1;P1;durP2;ratioP2;P2;SDS_P1;SDS_P2;PMS_P1;PMS_P2;Temp;Humidity;BMP_temperature;BMP_pressure;BME280_temperature;BME280_humidity;BME280_pressure;Samples;Min_cycle;Max_cycle;Signal;HPM_P1;HPM_P2
2022/12/15 00:38:43;;;;;;;30.37;16.23;;;-7.60;99.90;;;;;;5095651;28;20267;-83
2022/12/15 00:41:10;;;;;;;26.67;14.10;;;-7.70;99.90;;;;;;5084982;28;20775;-84
2022/12/15 00:43:37;;;;;;;28.07;15.07;;;-7.70;99.90;;;;;;5095916;28;20583;-84
2022/12/15 00:48:49;;;;;;;27.30;15.33;;;-7.60;99.90;;;;;;5096160;28;20223;-84
2022/12/15 00:51:16;;;;;;;28.80;15.73;;;-7.50;99.90;;;;;;5096198;28;20198;-84
2022/12/15 01:21:12;;;;;;;25.33;14.23;;;-6.90;99.90;;;;;;5083572;28;20223;-85
2022/12/15 01:23:41;;;;;;;27.67;15.33;;;-6.90;99.90;;;;;;5091356;28;20202;-85
2022/12/15 01:26:10;;;;;;;27.13;15.27;;;-6.90;99.90;;;;;;5093584;28;20205;-83
2022/12/15 01:28:37;;;;;;;28.47;15.03;;;-6.90;99.90;;;;;;5093428;28;20288;-81
2022/12/15 01:31:10;;;;;;;25.23;14.47;;;-6.70;99.90;;;;;;5083519;28;20573;-82
2022/12/15 01:33:38;;;;;;;28.80;14.93;;;-6.80;99.90;;;;;;5074073;28;20205;-83
2022/12/15 01:36:05;;;;;;;24.73;13.60;;;-7.00;99.90;;;;;;5084450;28;20213;-82
2022/12/15 01:38:32;;;;;;;24.60;14.07;;;-7.10;99.90;;;;;;5094173;28;20286;-83
2022/12/15 01:41:02;;;;;;;25.93;14.37;;;-7.00;99.90;;;;;;5094117;28;20193;-82
2022/12/15 01:43:33;;;;;;;23.87;13.97;;;-7.00;99.90;;;;;;5076347;28;20233;-84
2022/12/15 01:46:05;;;;;;;25.07;13.70;;;-7.10;99.90;;;;;;5081893;28;20560;-83
2022/12/15 01:48:38;;;;;;;25.53;14.13;;;-7.10;99.90;;;;;;5091404;28;20312;-83
2022/12/15 01:51:17;;;;;;;24.80;14.27;;;-6.90;99.90;;;;;;5098827;28;20205;-83
2022/12/15 01:53:50;;;;;;;26.83;14.97;;;-6.90;99.90;;;;;;5094299;28;20196;-82
2022/12/15 01:56:18;;;;;;;25.10;13.07;;;-6.50;99.90;;;;;;5102814;28;20204;-83
2022/12/15 01:58:49;;;;;;;28.13;15.13;;;-6.70;99.90;;;;;;5086710;28;20218;-83
2022/12/15 02:01:16;;;;;;;25.20;14.50;;;-6.40;99.90;;;;;;5092705;28;20201;-83
2022/12/15 02:03:44;;;;;;;23.97;13.80;;;-6.30;99.90;;;;;;5094241;28;20198;-83
2022/12/15 02:06:12;;;;;;;25.83;14.57;;;-6.20;99.90;;;;;;5091445;28;20205;-83
2022/12/15 02:08:42;;;;;;;27.10;14.97;;;-6.40;99.90;;;;;;5094381;28;20269;-84
2022/12/15 02:11:23;;;;;;;25.27;13.37;;;-6.30;99.90;;;;;;5086132;28;20202;-84
2022/12/15 02:13:59;;;;;;;27.27;15.23;;;-6.10;99.90;;;;;;5088770;28;20206;-84
2022/12/15 02:16:32;;;;;;;27.63;14.70;;;-6.00;99.90;;;;;;5093111;28;20201;-84
2022/12/15 02:19:08;;;;;;;26.07;15.57;;;-6.10;99.90;;;;;;5093105;28;20252;-83
2022/12/15 02:21:42;;;;;;;24.80;13.83;;;-6.10;99.90;;;;;;5089353;28;20649;-83
2022/12/15 02:24:38;;;;;;;28.07;14.57;;;-6.00;99.90;;;;;;5094020;28;20664;-83
2022/12/15 02:27:34;;;;;;;25.03;14.67;;;-6.10;99.90;;;;;;5092843;28;20259;-84
2022/12/15 02:30:25;;;;;;;28.77;15.80;;;-6.20;99.90;;;;;;5090638;28;20204;-84
2022/12/15 02:33:10;;;;;;;27.23;14.93;;;-6.00;99.90;;;;;;5087160;28;20265;-84
2022/12/15 02:35:45;;;;;;;28.10;15.20;;;-6.00;99.90;;;;;;5078619;28;20243;-84
2022/12/15 02:38:12;;;;;;;24.40;12.83;;;-5.70;99.90;;;;;;5091559;28;20687;-84
2022/12/15 02:40:39;;;;;;;24.80;14.60;;;-5.70;99.90;;;;;;5089583;28;20642;-84
2022/12/15 02:43:08;;;;;;;23.63;13.30;;;-5.50;99.90;;;;;;5093881;28;20210;-84
2022/12/15 02:45:46;;;;;;;26.90;14.63;;;-5.50;99.90;;;;;;5096772;28;20658;-84
2022/12/15 02:48:26;;;;;;;25.57;14.30;;;-5.60;99.90;;;;;;5090619;28;20213;-83
2022/12/15 02:51:07;;;;;;;27.00;14.47;;;-5.50;99.90;;;;;;5096979;28;20658;-83
2022/12/15 02:54:14;;;;;;;26.50;14.60;;;-5.40;99.90;;;;;;5094687;28;20586;-82
2022/12/15 02:56:45;;;;;;;24.27;12.70;;;-5.50;99.90;;;;;;5079467;28;20218;-84
2022/12/15 02:59:19;;;;;;;29.17;16.33;;;-5.40;99.90;;;;;;5095417;28;20209;-83
2022/12/15 03:01:53;;;;;;;23.97;12.97;;;-5.50;99.90;;;;;;5095496;28;20197;-82
2022/12/15 03:04:20;;;;;;;24.17;13.57;;;-5.10;99.90;;;;;;5096124;28;20209;-83
2022/12/15 03:06:55;;;;;;;28.77;14.47;;;-5.10;99.90;;;;;;5096798;28;20681;-83
2022/12/15 03:09:22;;;;;;;25.90;14.20;;;-5.00;99.90;;;;;;5091355;28;20564;-82
2022/12/15 03:11:49;;;;;;;26.90;12.33;;;-5.10;99.90;;;;;;5092614;28;20207;-84
2022/12/15 03:14:16;;;;;;;29.37;14.33;;;-4.90;99.90;;;;;;5075112;28;20212;-82
2022/12/15 03:16:43;;;;;;;25.97;13.73;;;-4.80;99.90;;;;;;5076268;28;20236;-83
2022/12/15 03:19:11;;;;;;;26.23;12.27;;;-4.90;99.90;;;;;;5075907;28;20222;-83
2022/12/15 03:21:38;;;;;;;26.63;12.90;;;-4.80;99.90;;;;;;5080883;28;20194;-83
2022/12/15 03:24:05;;;;;;;25.93;14.03;;;-4.90;99.90;;;;;;5096936;28;20194;-83
2022/12/15 03:26:31;;;;;;;23.07;12.37;;;-5.00;99.90;;;;;;5087980;28;20237;-83
2022/12/15 03:28:59;;;;;;;27.30;13.27;;;-4.80;99.90;;;;;;5076498;28;20199;-83
2022/12/15 03:31:26;;;;;;;23.87;12.30;;;-4.90;99.90;;;;;;5077860;28;20198;-83
2022/12/15 03:33:53;;;;;;;25.80;14.00;;;-5.10;99.90;;;;;;5096461;28;20340;-83
2022/12/15 03:36:21;;;;;;;27.33;13.10;;;-5.00;99.90;;;;;;5092999;28;20278;-83
2022/12/15 03:38:48;;;;;;;23.23;13.60;;;-5.00;99.90;;;;;;5098394;28;20287;-83
2022/12/15 03:41:16;;;;;;;21.90;12.27;;;-5.10;99.90;;;;;;5094695;28;20567;-83
2022/12/15 03:43:45;;;;;;;21.13;11.93;;;-5.10;99.90;;;;;;5094107;28;20213;-83
2022/12/15 03:46:11;;;;;;;23.03;13.37;;;-5.10;99.90;;;;;;5095156;28;20201;-82
2022/12/15 03:48:38;;;;;;;24.57;12.67;;;-5.10;99.90;;;;;;5088555;28;20190;-83
2022/12/15 03:51:05;;;;;;;25.27;13.43;;;-5.00;99.90;;;;;;5095068;28;20208;-82
2022/12/15 03:53:33;;;;;;;26.73;13.30;;;-4.60;99.90;;;;;;5093468;28;20202;-83
2022/12/15 03:56:00;;;;;;;22.53;11.30;;;-4.90;99.90;;;;;;5091986;28;20201;-84
2022/12/15 03:58:27;;;;;;;22.93;12.00;;;-4.90;99.90;;;;;;5088055;28;20229;-83
2022/12/15 04:00:54;;;;;;;25.67;12.27;;;-4.80;99.90;;;;;;5091742;28;20199;-84
2022/12/15 04:03:20;;;;;;;26.10;11.97;;;-5.00;99.90;;;;;;5091844;28;20216;-83
2022/12/15 04:05:48;;;;;;;26.20;13.47;;;-5.00;99.90;;;;;;5095404;28;20203;-84
2022/12/15 04:08:15;;;;;;;23.30;13.80;;;-4.70;99.90;;;;;;5095887;28;20212;-83
2022/12/15 04:10:43;;;;;;;25.77;12.97;;;-4.70;99.90;;;;;;5088291;28;20261;-83
2022/12/15 04:13:11;;;;;;;27.87;12.73;;;-4.70;99.90;;;;;;5085124;28;20198;-82
2022/12/15 04:15:39;;;;;;;26.47;13.30;;;-4.60;99.90;;;;;;5096117;28;20212;-83
2022/12/15 04:18:08;;;;;;;23.40;13.37;;;-4.60;99.90;;;;;;5098208;28;20227;-83
2022/12/15 04:20:34;;;;;;;21.47;12.87;;;-4.60;99.90;;;;;;5104739;28;20197;-83
2022/12/15 04:23:01;;;;;;;25.07;13.77;;;-4.60;99.90;;;;;;5089173;28;20202;-84
2022/12/15 05:31:47;;;;;;;27.80;13.67;;;-4.80;99.90;;;;;;5095421;28;20266;-83
2022/12/15 05:34:16;;;;;;;24.63;11.23;;;-4.80;99.90;;;;;;5093418;28;20189;-82
2022/12/15 05:36:42;;;;;;;22.17;12.83;;;-4.80;99.90;;;;;;5092880;28;20232;-83
2022/12/15 05:39:09;;;;;;;22.83;12.30;;;-4.60;99.90;;;;;;5081488;28;20218;-83
2022/12/15 05:41:36;;;;;;;22.70;11.63;;;-4.60;99.90;;;;;;5085458;28;20200;-83
2022/12/15 05:44:03;;;;;;;21.53;11.97;;;-4.60;99.90;;;;;;5093875;28;20513;-82
2022/12/15 05:46:30;;;;;;;23.07;13.20;;;-4.70;99.90;;;;;;5097884;28;20205;-81
2022/12/15 05:48:57;;;;;;;24.33;11.63;;;-4.60;99.90;;;;;;5090671;28;20196;-81
2022/12/15 05:51:25;;;;;;;21.53;10.60;;;-4.70;99.90;;;;;;5091180;28;20201;-81
2022/12/15 05:53:52;;;;;;;25.90;12.10;;;-4.60;99.90;;;;;;5091281;28;20217;-81
2022/12/15 05:56:18;;;;;;;25.23;11.90;;;-4.90;99.90;;;;;;5081367;28;20241;-82
2022/12/15 05:58:45;;;;;;;23.50;12.83;;;-4.80;99.90;;;;;;5074850;28;20713;-82
2022/12/15 06:01:14;;;;;;;24.77;13.87;;;-4.80;99.90;;;;;;5076293;28;20206;-82
2022/12/15 06:03:42;;;;;;;23.43;11.00;;;-4.70;99.90;;;;;;5094770;28;20642;-82
2022/12/15 06:06:10;;;;;;;20.40;10.73;;;-4.70;99.90;;;;;;5105244;28;20250;-82
2022/12/15 06:08:41;;;;;;;22.73;11.20;;;-4.60;99.90;;;;;;5109951;28;20276;-82
2022/12/15 06:11:11;;;;;;;25.57;12.37;;;-4.70;99.90;;;;;;5078706;28;20206;-82
2022/12/15 06:13:38;;;;;;;25.57;12.63;;;-4.70;99.90;;;;;;5073899;28;20204;-82
2022/12/15 06:16:07;;;;;;;25.73;13.03;;;-4.80;99.90;;;;;;5077770;28;20213;-81
2022/12/15 06:18:36;;;;;;;20.17;9.63;;;-4.60;99.90;;;;;;5098504;28;20570;-82
2022/12/15 06:21:05;;;;;;;26.10;14.30;;;-4.70;99.90;;;;;;5100662;28;20217;-81
2022/12/15 06:23:34;;;;;;;23.87;12.17;;;-4.90;99.90;;;;;;5101317;28;20201;-82
2022/12/15 06:26:09;;;;;;;23.23;11.13;;;-4.80;99.90;;;;;;5101171;28;20269;-81
2022/12/15 06:28:35;;;;;;;25.77;11.77;;;-5.00;99.90;;;;;;5100554;28;20221;-82
2022/12/15 06:31:05;;;;;;;24.83;12.97;;;-4.80;99.90;;;;;;5100260;28;20213;-82
2022/12/15 06:33:32;;;;;;;24.20;12.37;;;-4.70;99.90;;;;;;5101478;28;20197;-81
2022/12/15 06:36:03;;;;;;;23.40;13.27;;;-4.60;99.90;;;;;;5101092;28;20209;-82
2022/12/15 06:38:30;;;;;;;25.37;11.30;;;-4.50;99.90;;;;;;5101333;28;20227;-81
2022/12/15 06:40:57;;;;;;;21.27;12.10;;;-4.50;99.90;;;;;;5101173;28;20559;-82
2022/12/15 06:43:26;;;;;;;23.70;11.80;;;-4.60;99.90;;;;;;5100019;28;20208;-81
2022/12/15 06:45:52;;;;;;;22.17;11.97;;;-4.60;99.90;;;;;;5098827;28;20205;-81
2022/12/15 06:48:19;;;;;;;22.77;11.97;;;-4.60;99.90;;;;;;5104513;28;20225;-81
2022/12/15 06:50:46;;;;;;;22.80;10.77;;;-4.60;99.90;;;;;;5119337;28;20215;-81
2022/12/15 06:53:13;;;;;;;25.03;11.70;;;-4.70;99.90;;;;;;5117348;28;20633;-81
2022/12/15 06:55:41;;;;;;;25.43;11.60;;;-4.60;99.90;;;;;;5094440;28;20574;-81
2022/12/15 06:58:08;;;;;;;24.97;13.20;;;-4.50;99.90;;;;;;5098559;28;20257;-81
2022/12/15 07:00:36;;;;;;;22.33;12.47;;;-4.50;99.90;;;;;;5098525;28;20213;-81
2022/12/15 07:03:04;;;;;;;22.50;11.33;;;-4.40;99.90;;;;;;5098217;28;20297;-82
2022/12/15 07:05:31;;;;;;;25.00;11.87;;;-4.40;99.90;;;;;;5099040;28;20193;-81
2022/12/15 07:07:58;;;;;;;24.30;12.73;;;-4.40;99.90;;;;;;5100841;28;20249;-81
2022/12/15 07:10:25;;;;;;;25.13;12.93;;;-4.30;99.90;;;;;;5099545;28;20197;-81
2022/12/15 07:12:52;;;;;;;20.70;10.80;;;-4.20;99.90;;;;;;5099466;28;20208;-82
2022/12/15 07:15:19;;;;;;;23.30;11.87;;;-4.10;99.90;;;;;;5099201;28;20201;-81
2022/12/15 07:17:47;;;;;;;26.53;12.43;;;-4.20;99.90;;;;;;5099037;28;20247;-82
2022/12/15 07:20:14;;;;;;;25.90;12.90;;;-4.30;99.90;;;;;;5099311;28;20699;-82
2022/12/15 07:22:40;;;;;;;26.53;13.33;;;-4.30;99.90;;;;;;5097924;28;20627;-82
2022/12/15 07:25:09;;;;;;;23.13;11.30;;;-4.20;99.90;;;;;;5097311;28;20284;-82
2022/12/15 07:27:35;;;;;;;23.27;11.10;;;-4.30;99.90;;;;;;5095884;28;20217;-82
2022/12/15 07:30:02;;;;;;;23.70;12.60;;;-4.30;99.90;;;;;;5097117;28;20229;-82
2022/12/15 07:32:29;;;;;;;24.10;11.53;;;-4.30;99.90;;;;;;5096369;28;20215;-82
2022/12/15 07:34:57;;;;;;;20.23;9.70;;;-4.20;99.90;;;;;;5096662;28;20201;-82
2022/12/15 07:37:24;;;;;;;24.03;11.27;;;-4.10;99.90;;;;;;5096159;28;20698;-82
2022/12/15 07:39:51;;;;;;;27.33;14.03;;;-4.00;99.90;;;;;;5096270;28;20213;-82
2022/12/15 07:42:18;;;;;;;26.27;12.20;;;-4.00;99.90;;;;;;5096131;28;20296;-81
2022/12/15 07:44:45;;;;;;;24.83;12.13;;;-4.00;99.90;;;;;;5096862;28;20205;-82
2022/12/15 07:47:12;;;;;;;22.73;12.80;;;-3.90;99.90;;;;;;5097241;28;20225;-83
2022/12/15 07:49:39;;;;;;;21.17;12.53;;;-3.90;99.90;;;;;;5097013;28;20208;-82
2022/12/15 07:52:07;;;;;;;24.10;11.70;;;-4.10;99.90;;;;;;5096453;28;20210;-82
2022/12/15 07:54:34;;;;;;;24.17;11.80;;;-4.20;99.90;;;;;;5096110;28;20201;-82
2022/12/15 07:57:01;;;;;;;23.57;13.03;;;-4.00;99.90;;;;;;5096435;28;20694;-81
2022/12/15 07:59:29;;;;;;;25.33;14.10;;;-3.90;99.90;;;;;;5098679;28;20569;-81
2022/12/15 08:01:56;;;;;;;24.83;12.07;;;-3.70;99.90;;;;;;5098164;28;20216;-81
2022/12/15 08:04:22;;;;;;;25.87;11.70;;;-3.70;99.90;;;;;;5096656;28;20201;-81
2022/12/15 08:06:50;;;;;;;26.23;13.80;;;-3.60;99.90;;;;;;5096632;28;20225;-81
2022/12/15 08:09:18;;;;;;;24.23;13.13;;;-3.50;99.90;;;;;;5085743;28;20202;-81
2022/12/15 08:11:45;;;;;;;25.93;12.07;;;-3.50;99.90;;;;;;5079102;28;20210;-80
2022/12/15 08:14:12;;;;;;;23.43;11.80;;;-3.50;99.90;;;;;;5077087;28;20215;-80
2022/12/15 08:16:39;;;;;;;27.77;12.27;;;-3.50;99.90;;;;;;5077543;28;20571;-81
2022/12/15 08:19:07;;;;;;;23.37;12.03;;;-3.50;99.90;;;;;;5092600;28;20308;-82
2022/12/15 08:21:34;;;;;;;22.57;10.87;;;-3.40;99.90;;;;;;5096805;28;20303;-82
2022/12/15 08:24:01;;;;;;;24.07;11.93;;;-3.20;99.90;;;;;;5096054;28;20577;-81
2022/12/15 08:26:29;;;;;;;25.87;12.20;;;-3.10;99.90;;;;;;5096053;28;20208;-81
2022/12/15 08:28:56;;;;;;;25.73;12.60;;;-3.00;99.90;;;;;;5097551;28;20197;-82
2022/12/15 08:31:24;;;;;;;27.13;11.87;;;-2.80;99.90;;;;;;5095543;28;20247;-81
2022/12/15 08:33:51;;;;;;;29.30;12.70;;;-2.80;99.90;;;;;;5076539;28;20209;-81
2022/12/15 08:36:19;;;;;;;27.63;12.97;;;-2.60;99.90;;;;;;5089054;28;20625;-81
2022/12/15 08:38:47;;;;;;;24.63;11.83;;;-2.60;99.90;;;;;;5095589;28;20222;-82
2022/12/15 08:41:15;;;;;;;26.07;10.97;;;-2.80;99.90;;;;;;5103766;28;20300;-81
2022/12/15 08:43:44;;;;;;;25.63;12.63;;;-2.80;99.90;;;;;;5094059;28;20218;-82
2022/12/15 08:46:11;;;;;;;25.60;11.87;;;-2.70;99.90;;;;;;5102303;28;20724;-82
2022/12/15 08:48:38;;;;;;;26.17;13.23;;;-2.60;99.90;;;;;;5091456;28;20227;-83
2022/12/15 08:51:06;;;;;;;24.27;12.53;;;-2.20;99.90;;;;;;5101188;28;20197;-82
2022/12/15 08:53:33;;;;;;;27.93;12.83;;;-2.20;99.90;;;;;;5087821;28;20642;-81
2022/12/15 08:56:03;;;;;;;27.27;12.20;;;-1.90;99.90;;;;;;5092456;28;20194;-82
2022/12/15 08:58:30;;;;;;;27.47;12.10;;;-2.20;99.90;;;;;;5086882;28;20606;-82
2022/12/15 09:01:01;;;;;;;24.40;11.43;;;-2.30;99.90;;;;;;5097733;28;20201;-82
2022/12/15 09:03:28;;;;;;;26.50;11.67;;;-2.20;99.90;;;;;;5078784;28;20197;-80
2022/12/15 09:05:56;;;;;;;25.83;12.07;;;-2.20;99.90;;;;;;5087415;28;20208;-82
2022/12/15 09:08:23;;;;;;;25.87;14.57;;;-2.30;99.90;;;;;;5094504;28;20267;-81
2022/12/15 09:10:50;;;;;;;24.40;11.70;;;-2.30;99.90;;;;;;5094197;28;20673;-80
2022/12/15 09:13:17;;;;;;;29.37;13.77;;;-2.20;99.90;;;;;;5095748;28;20646;-82
2022/12/15 09:15:44;;;;;;;25.30;12.23;;;-2.10;99.90;;;;;;5081703;28;20569;-81
2022/12/15 09:18:12;;;;;;;23.43;12.77;;;-1.80;99.90;;;;;;5085986;28;20277;-80
2022/12/15 09:20:39;;;;;;;23.87;12.27;;;-2.00;99.90;;;;;;5090422;28;20222;-81
2022/12/15 09:23:06;;;;;;;24.73;11.43;;;-2.10;99.90;;;;;;5084094;28;20205;-81
2022/12/15 09:25:33;;;;;;;23.87;12.67;;;-2.00;99.90;;;;;;5089562;28;20202;-81
2022/12/15 09:27:59;;;;;;;26.03;12.17;;;-1.80;99.90;;;;;;5092041;28;20266;-80
2022/12/15 09:30:26;;;;;;;25.90;13.33;;;-1.60;99.90;;;;;;5102547;28;20198;-81
2022/12/15 09:32:53;;;;;;;25.23;13.07;;;-1.30;99.90;;;;;;5080994;28;20205;-81
2022/12/15 09:35:21;;;;;;;24.00;11.73;;;-0.90;99.90;;;;;;5101841;28;20306;-81
2022/12/15 09:37:49;;;;;;;22.37;12.70;;;-1.00;99.90;;;;;;5090488;28;20301;-81
2022/12/15 09:40:15;;;;;;;23.17;13.10;;;-0.90;99.90;;;;;;5090188;28;20274;-80
2022/12/15 09:42:44;;;;;;;26.47;11.97;;;-0.70;99.90;;;;;;5093830;28;20210;-80
2022/12/15 09:45:17;;;;;;;24.33;12.30;;;-1.30;99.90;;;;;;5091054;28;20389;-80
2022/12/15 09:47:52;;;;;;;27.60;12.80;;;-1.40;99.90;;;;;;5084999;28;20298;-80
2022/12/15 09:50:27;;;;;;;26.00;11.80;;;-1.40;99.90;;;;;;5081039;28;20212;-78
2022/12/15 09:52:58;;;;;;;24.37;12.10;;;-1.30;99.90;;;;;;5092532;28;20208;-79
2022/12/15 09:55:27;;;;;;;24.50;11.63;;;-1.30;99.90;;;;;;5085787;28;20209;-80
2022/12/15 09:57:56;;;;;;;25.20;12.47;;;-1.20;99.90;;;;;;5083804;28;20236;-80
2022/12/15 10:00:24;;;;;;;24.50;13.87;;;-1.10;99.90;;;;;;5082251;28;20221;-79
2022/12/15 10:03:22;;;;;;;22.80;11.30;;;-1.10;99.90;;;;;;5091352;28;20210;-80
2022/12/15 10:06:08;;;;;;;21.67;11.40;;;-0.90;99.90;;;;;;5085367;28;20207;-82
2022/12/15 10:08:38;;;;;;;24.33;12.63;;;-0.80;99.90;;;;;;5089115;28;20217;-81
2022/12/15 10:11:16;;;;;;;26.20;12.07;;;-0.80;99.90;;;;;;5091150;28;20213;-81
2022/12/15 10:13:51;;;;;;;22.13;11.70;;;-0.70;99.90;;;;;;5079852;28;20205;-81
2022/12/15 10:16:23;;;;;;;24.90;12.43;;;-0.70;99.90;;;;;;5088047;28;20585;-81
2022/12/15 10:19:01;;;;;;;23.30;11.40;;;-0.60;99.90;;;;;;5082246;28;20208;-81
2022/12/15 10:21:31;;;;;;;23.40;12.97;;;0.20;99.90;;;;;;5083682;28;20578;-82
2022/12/15 10:24:07;;;;;;;24.33;13.20;;;-0.30;99.90;;;;;;5091561;28;20206;-81
2022/12/15 10:26:35;;;;;;;23.23;12.07;;;-0.60;99.90;;;;;;5082999;28;20229;-81
2022/12/15 10:29:10;;;;;;;24.83;12.20;;;-0.60;99.90;;;;;;5087067;28;20213;-82
2022/12/15 10:31:43;;;;;;;24.87;12.07;;;-0.70;99.90;;;;;;5088083;28;20717;-82
2022/12/15 10:34:26;;;;;;;21.50;11.80;;;-0.70;99.90;;;;;;5079087;28;20203;-81
2022/12/15 10:36:55;;;;;;;22.97;11.70;;;-0.80;99.90;;;;;;5085192;28;20452;-82
2022/12/15 10:39:23;;;;;;;22.10;12.10;;;-0.70;99.90;;;;;;5086207;28;20226;-81
2022/12/15 10:42:13;;;;;;;25.40;12.37;;;-0.60;99.90;;;;;;5088865;28;20202;-80
2022/12/15 10:44:42;;;;;;;25.60;12.20;;;-0.50;99.90;;;;;;5082509;28;20198;-81
2022/12/15 10:47:10;;;;;;;23.63;11.97;;;-0.40;99.90;;;;;;5084657;28;20236;-81
2022/12/15 10:49:37;;;;;;;25.20;12.13;;;-0.40;99.90;;;;;;5086666;28;20198;-81
2022/12/15 10:52:14;;;;;;;23.60;11.90;;;-0.40;99.90;;;;;;5089047;28;20213;-82
2022/12/15 10:54:45;;;;;;;27.27;12.23;;;-0.40;99.90;;;;;;5083395;28;20201;-81
2022/12/15 10:57:16;;;;;;;23.60;12.53;;;-0.40;99.90;;;;;;5084160;28;20415;-81
2022/12/15 10:59:43;;;;;;;22.63;11.67;;;-0.30;99.90;;;;;;5080668;28;20225;-82
2022/12/15 11:02:32;;;;;;;22.07;11.50;;;-0.30;99.90;;;;;;5090951;28;20198;-81
2022/12/15 11:05:01;;;;;;;23.27;12.67;;;-0.30;99.90;;;;;;5085824;28;20217;-81
2022/12/15 11:07:35;;;;;;;24.80;12.10;;;-0.20;99.90;;;;;;5100297;28;20221;-81
2022/12/15 11:10:14;;;;;;;20.47;11.90;;;-0.10;99.90;;;;;;5084921;28;20284;-81
2022/12/15 11:12:52;;;;;;;24.10;12.10;;;-0.10;99.90;;;;;;5101273;28;20198;-81
2022/12/15 11:15:50;;;;;;;21.50;11.73;;;-0.10;99.90;;;;;;5082378;28;20206;-81
2022/12/15 11:18:27;;;;;;;23.00;11.37;;;-0.10;99.90;;;;;;5094521;28;20245;-81
2022/12/15 11:21:02;;;;;;;18.80;9.23;;;-0.10;99.90;;;;;;5082580;28;20221;-81
2022/12/15 11:23:45;;;;;;;21.77;11.13;;;0.00;99.90;;;;;;5087098;28;20197;-81
2022/12/15 11:26:23;;;;;;;24.13;11.63;;;0.00;99.90;;;;;;5082986;28;20205;-81
2022/12/15 11:28:56;;;;;;;23.97;11.30;;;0.10;99.90;;;;;;5097930;28;20198;-81
2022/12/15 11:31:28;;;;;;;24.57;12.10;;;0.10;99.90;;;;;;5092630;28;20662;-81
2022/12/15 11:33:55;;;;;;;20.53;11.63;;;0.10;99.90;;;;;;5095317;28;20251;-80
2022/12/15 11:36:41;;;;;;;22.53;11.63;;;0.20;99.90;;;;;;5090289;28;20225;-81
2022/12/15 11:39:18;;;;;;;21.33;11.33;;;0.20;99.90;;;;;;5088258;28;20206;-81
2022/12/15 11:41:53;;;;;;;23.43;12.07;;;0.20;99.90;;;;;;5087685;28;20202;-80
2022/12/15 11:44:27;;;;;;;20.40;11.73;;;0.20;99.90;;;;;;5092516;28;20292;-81
2022/12/15 11:47:03;;;;;;;22.70;12.53;;;0.20;99.90;;;;;;5093494;28;20218;-82
2022/12/15 11:49:49;;;;;;;21.93;11.57;;;0.30;99.90;;;;;;5091261;28;20197;-80
2022/12/15 11:52:34;;;;;;;23.37;11.77;;;0.30;99.90;;;;;;5093311;28;20289;-78
2022/12/15 11:55:09;;;;;;;22.17;11.40;;;0.30;99.90;;;;;;5085920;28;20225;-79
2022/12/15 11:58:02;;;;;;;20.93;10.23;;;0.40;99.90;;;;;;5096633;28;20275;-81
2022/12/15 12:00:34;;;;;;;23.07;10.77;;;0.90;99.90;;;;;;5096176;28;20224;-80
2022/12/15 12:03:13;;;;;;;22.77;11.93;;;0.90;99.90;;;;;;5098374;28;20190;-79
2022/12/15 12:05:51;;;;;;;22.47;11.50;;;1.10;99.90;;;;;;5097812;28;20189;-79
2022/12/15 12:08:49;;;;;;;22.40;10.73;;;1.00;99.90;;;;;;5092698;28;20702;-80
2022/12/15 12:11:21;;;;;;;21.17;10.80;;;1.10;99.90;;;;;;5073191;28;20208;-80
2022/12/15 12:14:01;;;;;;;20.27;11.70;;;0.90;99.90;;;;;;5092788;28;20695;-80
2022/12/15 12:16:39;;;;;;;20.30;9.77;;;0.90;99.90;;;;;;5078174;28;20216;-79
2022/12/15 12:19:10;;;;;;;23.37;11.40;;;0.80;99.90;;;;;;5090033;28;20224;-80
2022/12/15 12:21:40;;;;;;;22.33;11.23;;;0.70;99.90;;;;;;5091464;28;20218;-80
2022/12/15 12:24:16;;;;;;;21.77;11.73;;;0.90;99.90;;;;;;5092272;28;20202;-80
2022/12/15 12:26:47;;;;;;;19.03;10.43;;;1.10;99.90;;;;;;5092347;28;20221;-80
2022/12/15 12:29:19;;;;;;;19.70;9.67;;;1.20;99.90;;;;;;5081179;28;20226;-80
2022/12/15 12:31:56;;;;;;;20.67;10.07;;;1.00;99.90;;;;;;5093806;28;20230;-80
2022/12/15 12:34:32;;;;;;;22.27;10.27;;;1.00;99.90;;;;;;5093953;28;20205;-80
2022/12/15 12:37:19;;;;;;;22.90;10.60;;;1.10;99.90;;;;;;5075090;28;20248;-80
2022/12/15 12:39:46;;;;;;;20.97;10.10;;;1.00;99.90;;;;;;5073813;28;20754;-80
2022/12/15 12:42:21;;;;;;;23.27;12.37;;;1.30;99.90;;;;;;5099973;28;20669;-80
2022/12/15 12:44:48;;;;;;;20.30;10.17;;;2.10;99.90;;;;;;5112050;28;20536;-80
2022/12/15 12:47:21;;;;;;;19.83;11.20;;;1.90;99.90;;;;;;5087683;28;20756;-81
2022/12/15 12:49:52;;;;;;;21.20;10.80;;;1.50;99.90;;;;;;5093212;28;20210;-80
2022/12/15 12:52:23;;;;;;;18.57;10.37;;;1.50;99.90;;;;;;5094465;28;20592;-80
2022/12/15 12:54:58;;;;;;;19.47;10.90;;;1.20;99.90;;;;;;5094043;28;20269;-80
2022/12/15 12:57:39;;;;;;;20.93;10.90;;;1.20;99.90;;;;;;5085465;28;20531;-80
2022/12/15 13:00:16;;;;;;;20.40;11.37;;;1.00;99.90;;;;;;5099094;28;20231;-80
2022/12/15 13:02:53;;;;;;;19.23;10.70;;;1.40;99.90;;;;;;5099511;28;20208;-80
2022/12/15 13:05:31;;;;;;;20.73;10.13;;;1.40;99.90;;;;;;5082804;28;20487;-81
2022/12/15 13:08:17;;;;;;;20.23;10.97;;;1.80;99.90;;;;;;5105257;28;20507;-81
2022/12/15 13:10:46;;;;;;;19.47;10.00;;;1.80;99.90;;;;;;5098417;28;20207;-81
2022/12/15 13:13:40;;;;;;;17.63;10.17;;;1.90;99.90;;;;;;5089788;28;20569;-80
2022/12/15 13:16:11;;;;;;;17.43;9.67;;;1.80;99.90;;;;;;5080761;28;20301;-80
2022/12/15 13:19:05;;;;;;;19.87;10.20;;;1.10;99.90;;;;;;5091086;28;20216;-80
2022/12/15 13:21:54;;;;;;;20.13;9.97;;;0.90;99.90;;;;;;5092320;28;20237;-80
2022/12/15 13:24:33;;;;;;;20.33;10.20;;;0.70;99.90;;;;;;5078601;28;20221;-81
2022/12/15 13:27:14;;;;;;;23.40;10.77;;;0.60;99.90;;;;;;5073843;28;20333;-80
2022/12/15 13:29:58;;;;;;;20.83;10.70;;;0.60;99.90;;;;;;5078924;28;20228;-80
2022/12/15 13:32:29;;;;;;;22.10;10.40;;;0.60;99.90;;;;;;5087058;28;20222;-80
2022/12/15 13:34:57;;;;;;;21.10;11.00;;;0.90;99.90;;;;;;5091940;28;20689;-80
2022/12/15 13:37:47;;;;;;;20.53;10.97;;;0.80;99.90;;;;;;5083786;28;20244;-80
2022/12/15 13:40:51;;;;;;;21.70;10.20;;;0.80;99.90;;;;;;5087230;28;20217;-80
2022/12/15 13:43:41;;;;;;;20.27;11.03;;;0.50;99.90;;;;;;5065457;28;20244;-80
2022/12/15 13:46:16;;;;;;;23.27;11.57;;;0.50;99.90;;;;;;5081736;28;20202;-80
2022/12/15 13:48:45;;;;;;;20.03;10.67;;;0.40;99.90;;;;;;5083145;28;20499;-80
2022/12/15 13:51:28;;;;;;;20.80;11.30;;;0.40;99.90;;;;;;5087439;28;20198;-80
2022/12/15 13:53:59;;;;;;;21.43;10.97;;;0.40;99.90;;;;;;5087103;28;20205;-80
2022/12/15 13:56:50;;;;;;;21.77;10.87;;;0.30;99.90;;;;;;5081905;28;20211;-80
2022/12/15 13:59:26;;;;;;;20.50;10.50;;;0.30;99.90;;;;;;5088595;28;20194;-80
2022/12/15 14:01:55;;;;;;;24.57;11.03;;;0.20;99.90;;;;;;5079458;28;20225;-81
2022/12/15 14:04:22;;;;;;;20.20;10.87;;;0.30;99.90;;;;;;5084176;28;20297;-80
2022/12/15 14:06:52;;;;;;;20.03;10.13;;;0.30;99.90;;;;;;5091122;28;20710;-80
2022/12/15 14:09:27;;;;;;;21.20;11.23;;;0.40;99.90;;;;;;5090117;28;20201;-80
2022/12/15 14:11:54;;;;;;;19.57;10.67;;;0.30;99.90;;;;;;5089288;28;20584;-80
2022/12/15 14:14:27;;;;;;;20.50;10.07;;;0.20;99.90;;;;;;5088552;28;20213;-81
2022/12/15 14:17:05;;;;;;;21.20;10.07;;;0.10;99.90;;;;;;5069233;28;20222;-80
2022/12/15 14:19:40;;;;;;;23.43;10.27;;;0.10;99.90;;;;;;5072042;28;20207;-80
2022/12/15 14:22:21;;;;;;;18.57;9.83;;;0.00;99.90;;;;;;5069861;28;20213;-80
2022/12/15 14:24:49;;;;;;;21.77;10.57;;;-0.10;99.90;;;;;;5084214;28;20205;-80
2022/12/15 14:27:23;;;;;;;20.37;10.63;;;-0.10;99.90;;;;;;5084786;28;20225;-81
2022/12/15 14:29:50;;;;;;;20.77;10.77;;;-0.10;99.90;;;;;;5087497;28;20276;-80
2022/12/15 14:32:18;;;;;;;21.97;10.60;;;-0.20;99.90;;;;;;5069998;28;20209;-80
2022/12/15 14:34:45;;;;;;;20.90;9.57;;;-0.20;99.90;;;;;;5090768;28;20212;-80
2022/12/15 14:37:17;;;;;;;19.73;10.47;;;-0.10;99.90;;;;;;5092615;28;20232;-80
2022/12/15 14:39:46;;;;;;;20.90;11.17;;;-0.10;99.90;;;;;;5093921;28;20707;-80
2022/12/15 14:42:18;;;;;;;20.93;10.60;;;-0.20;99.90;;;;;;5091774;28;20727;-80
2022/12/15 14:44:47;;;;;;;22.07;10.97;;;-0.30;99.90;;;;;;5072899;28;20198;-80
2022/12/15 14:47:23;;;;;;;21.53;10.80;;;-0.30;99.90;;;;;;5073859;28;20432;-80
2022/12/15 14:49:51;;;;;;;21.43;10.37;;;-0.50;99.90;;;;;;5093845;28;20201;-81
2022/12/15 14:52:26;;;;;;;19.77;10.00;;;-0.60;99.90;;;;;;5093884;28;20201;-80
2022/12/15 14:54:55;;;;;;;22.53;11.57;;;-0.60;99.90;;;;;;5078008;28;20591;-80
2022/12/15 14:57:24;;;;;;;20.17;11.17;;;-0.60;99.90;;;;;;5086386;28;20642;-80
2022/12/15 14:59:52;;;;;;;22.20;11.93;;;-0.60;99.90;;;;;;5108609;28;20203;-81
2022/12/15 15:02:24;;;;;;;21.50;11.07;;;-0.60;99.90;;;;;;5092574;28;20232;-80
2022/12/15 15:04:58;;;;;;;22.57;11.80;;;-0.70;99.90;;;;;;5087811;28;20662;-80
2022/12/15 15:07:26;;;;;;;21.87;10.83;;;-0.70;99.90;;;;;;5094817;28;20225;-80